sensor_id;sensor_type;location;lat;lon;timestamp;P1;durP1;ratioP1;P2;durP2;ratioP2
140;SDS011;65;48.778;9.160;2023-03-14T00:00:34;1.95;;;0.88;;
140;SDS011;65;48.778;9.160;2023-03-14T00:03:28;1.15;;;0.75;;
140;SDS011;65;48.778;9.160;2023-03-14T00:06:13;1.50;;;0.50;;
140;SDS011;65;48.778;9.160;2023-03-14T00:08:59;1.60;;;0.80;;
140;SDS011;65;48.778;9.160;2023-03-14T00:11:45;1.10;;;0.82;;
140;SDS011;65;48.778;9.160;2023-03-14T00:14:31;1.10;;;0.60;;
140;SDS011;65;48.778;9.160;2023-03-14T00:17:17;1.25;;;0.70;;
140;SDS011;65;48.778;9.160;2023-03-14T00:20:04;0.75;;;0.60;;
140;SDS011;65;48.778;9.160;2023-03-14T00:22:53;1.20;;;0.60;;
140;SDS011;65;48.778;9.160;2023-03-14T00:25:39;1.00;;;0.60;;
140;SDS011;65;48.778;9.160;2023-03-14T00:28:24;1.45;;;0.60;;
140;SDS011;65;48.778;9.160;2023-03-14T00:31:11;1.38;;;0.88;;
140;SDS011;65;48.778;9.160;2023-03-14T00:33:59;3.38;;;0.77;;
140;SDS011;65;48.778;9.160;2023-03-14T00:36:45;1.27;;;0.57;;
140;SDS011;65;48.778;9.160;2023-03-14T00:39:30;1.83;;;0.95;;
140;SDS011;65;48.778;9.160;2023-03-14T00:42:16;0.60;;;0.60;;
140;SDS011;65;48.778;9.160;2023-03-14T00:45:02;1.20;;;0.73;;
140;SDS011;65;48.778;9.160;2023-03-14T00:47:49;1.65;;;0.80;;
140;SDS011;65;48.778;9.160;2023-03-14T00:50:34;1.35;;;0.82;;
140;SDS011;65;48.778;9.160;2023-03-14T00:53:20;1.50;;;0.90;;
140;SDS011;65;48.778;9.160;2023-03-14T00:56:07;1.38;;;0.80;;
140;SDS011;65;48.778;9.160;2023-03-14T00:58:55;1.38;;;0.75;;
140;SDS011;65;48.778;9.160;2023-03-14T01:01:41;0.98;;;0.80;;
140;SDS011;65;48.778;9.160;2023-03-14T01:04:27;2.33;;;1.05;;
140;SDS011;65;48.778;9.160;2023-03-14T01:07:13;1.35;;;0.85;;
140;SDS011;65;48.778;9.160;2023-03-14T01:09:59;1.10;;;0.70;;
140;SDS011;65;48.778;9.160;2023-03-14T01:12:44;1.77;;;0.63;;
140;SDS011;65;48.778;9.160;2023-03-14T01:15:31;1.67;;;0.60;;
140;SDS011;65;48.778;9.160;2023-03-14T01:18:18;0.50;;;0.45;;
140;SDS011;65;48.778;9.160;2023-03-14T01:21:08;1.33;;;0.88;;
140;SDS011;65;48.778;9.160;2023-03-14T01:23:57;1.13;;;0.82;;
140;SDS011;65;48.778;9.160;2023-03-14T01:26:44;0.75;;;0.52;;
140;SDS011;65;48.778;9.160;2023-03-14T01:29:30;1.67;;;0.80;;
140;SDS011;65;48.778;9.160;2023-03-14T01:32:16;0.73;;;0.70;;
140;SDS011;65;48.778;9.160;2023-03-14T01:35:02;0.50;;;0.50;;
140;SDS011;65;48.778;9.160;2023-03-14T01:37:48;1.10;;;0.68;;
140;SDS011;65;48.778;9.160;2023-03-14T01:40:40;1.42;;;0.73;;
140;SDS011;65;48.778;9.160;2023-03-14T01:43:27;1.00;;;0.47;;
140;SDS011;65;48.778;9.160;2023-03-14T01:49:29;0.70;;;0.70;;
140;SDS011;65;48.778;9.160;2023-03-14T01:55:21;0.52;;;0.47;;
140;SDS011;65;48.778;9.160;2023-03-14T01:58:10;2.38;;;0.65;;
140;SDS011;65;48.778;9.160;2023-03-14T02:00:56;2.42;;;0.70;;
140;SDS011;65;48.778;9.160;2023-03-14T02:03:45;1.33;;;0.90;;
140;SDS011;65;48.778;9.160;2023-03-14T02:06:38;0.68;;;0.50;;
140;SDS011;65;48.778;9.160;2023-03-14T02:09:30;1.70;;;0.80;;
140;SDS011;65;48.778;9.160;2023-03-14T02:12:16;2.35;;;0.82;;
140;SDS011;65;48.778;9.160;2023-03-14T02:15:06;1.40;;;0.73;;
140;SDS011;65;48.778;9.160;2023-03-14T02:17:52;1.88;;;0.52;;
140;SDS011;65;48.778;9.160;2023-03-14T02:20:42;0.43;;;0.43;;
140;SDS011;65;48.778;9.160;2023-03-14T02:26:38;1.08;;;0.70;;
140;SDS011;65;48.778;9.160;2023-03-14T02:29:28;1.58;;;0.73;;
140;SDS011;65;48.778;9.160;2023-03-14T02:32:17;1.08;;;0.50;;
140;SDS011;65;48.778;9.160;2023-03-14T02:35:06;3.38;;;1.90;;
140;SDS011;65;48.778;9.160;2023-03-14T02:41:09;2.85;;;0.80;;
140;SDS011;65;48.778;9.160;2023-03-14T02:43:55;1.38;;;0.70;;
140;SDS011;65;48.778;9.160;2023-03-14T02:46:41;1.95;;;0.50;;
140;SDS011;65;48.778;9.160;2023-03-14T02:49:27;2.17;;;0.82;;
140;SDS011;65;48.778;9.160;2023-03-14T02:52:15;0.80;;;0.70;;
140;SDS011;65;48.778;9.160;2023-03-14T02:55:01;0.90;;;0.80;;
140;SDS011;65;48.778;9.160;2023-03-14T02:57:46;1.05;;;0.50;;
140;SDS011;65;48.778;9.160;2023-03-14T03:00:32;0.88;;;0.60;;
140;SDS011;65;48.778;9.160;2023-03-14T03:06:28;1.52;;;0.90;;
140;SDS011;65;48.778;9.160;2023-03-14T03:09:14;2.00;;;0.95;;
140;SDS011;65;48.778;9.160;2023-03-14T03:12:00;1.88;;;0.70;;
140;SDS011;65;48.778;9.160;2023-03-14T03:14:45;1.35;;;0.45;;
140;SDS011;65;48.778;9.160;2023-03-14T03:17:31;2.13;;;0.80;;
140;SDS011;65;48.778;9.160;2023-03-14T03:20:17;2.25;;;0.80;;
140;SDS011;65;48.778;9.160;2023-03-14T03:23:03;1.95;;;0.88;;
140;SDS011;65;48.778;9.160;2023-03-14T03:25:49;1.50;;;0.60;;
140;SDS011;65;48.778;9.160;2023-03-14T03:28:36;3.60;;;1.05;;
140;SDS011;65;48.778;9.160;2023-03-14T03:31:22;2.60;;;0.70;;
140;SDS011;65;48.778;9.160;2023-03-14T03:34:07;3.55;;;1.08;;
140;SDS011;65;48.778;9.160;2023-03-14T03:36:55;3.58;;;0.80;;
140;SDS011;65;48.778;9.160;2023-03-14T03:39:42;3.90;;;0.90;;
140;SDS011;65;48.778;9.160;2023-03-14T03:42:27;4.97;;;1.00;;
140;SDS011;65;48.778;9.160;2023-03-14T03:45:13;3.65;;;1.02;;
140;SDS011;65;48.778;9.160;2023-03-14T03:47:59;4.40;;;0.98;;
140;SDS011;65;48.778;9.160;2023-03-14T03:50:45;4.75;;;0.95;;
140;SDS011;65;48.778;9.160;2023-03-14T03:53:31;0.57;;;0.45;;
140;SDS011;65;48.778;9.160;2023-03-14T03:56:17;1.92;;;0.90;;
140;SDS011;65;48.778;9.160;2023-03-14T03:59:03;4.25;;;1.00;;
140;SDS011;65;48.778;9.160;2023-03-14T04:01:48;3.63;;;0.93;;
140;SDS011;65;48.778;9.160;2023-03-14T04:04:34;5.47;;;1.10;;
140;SDS011;65;48.778;9.160;2023-03-14T04:07:20;3.33;;;1.08;;
140;SDS011;65;48.778;9.160;2023-03-14T04:10:06;3.60;;;1.02;;
140;SDS011;65;48.778;9.160;2023-03-14T04:12:52;3.42;;;0.90;;
140;SDS011;65;48.778;9.160;2023-03-14T04:15:37;3.70;;;1.08;;
140;SDS011;65;48.778;9.160;2023-03-14T04:18:23;3.90;;;1.00;;
140;SDS011;65;48.778;9.160;2023-03-14T04:21:12;3.25;;;1.00;;
140;SDS011;65;48.778;9.160;2023-03-14T04:23:58;5.05;;;1.10;;
140;SDS011;65;48.778;9.160;2023-03-14T04:26:45;4.50;;;1.23;;
140;SDS011;65;48.778;9.160;2023-03-14T04:29:31;5.07;;;0.98;;
140;SDS011;65;48.778;9.160;2023-03-14T04:32:17;2.55;;;0.80;;
140;SDS011;65;48.778;9.160;2023-03-14T04:35:03;2.13;;;0.90;;
140;SDS011;65;48.778;9.160;2023-03-14T04:41:21;6.07;;;1.25;;
140;SDS011;65;48.778;9.160;2023-03-14T04:44:07;5.90;;;1.20;;
140;SDS011;65;48.778;9.160;2023-03-14T04:46:52;3.80;;;1.33;;
140;SDS011;65;48.778;9.160;2023-03-14T04:49:38;2.47;;;1.17;;
140;SDS011;65;48.778;9.160;2023-03-14T04:52:24;4.57;;;1.13;;
140;SDS011;65;48.778;9.160;2023-03-14T04:55:11;4.55;;;1.40;;
140;SDS011;65;48.778;9.160;2023-03-14T04:57:56;7.15;;;1.20;;
140;SDS011;65;48.778;9.160;2023-03-14T05:00:42;2.75;;;0.98;;
140;SDS011;65;48.778;9.160;2023-03-14T05:03:28;3.67;;;1.05;;
140;SDS011;65;48.778;9.160;2023-03-14T05:06:13;3.75;;;1.00;;
140;SDS011;65;48.778;9.160;2023-03-14T05:08:59;4.47;;;1.00;;
140;SDS011;65;48.778;9.160;2023-03-14T05:11:45;4.25;;;1.08;;
140;SDS011;65;48.778;9.160;2023-03-14T05:14:40;4.07;;;0.80;;
140;SDS011;65;48.778;9.160;2023-03-14T05:17:39;3.95;;;0.90;;
140;SDS011;65;48.778;9.160;2023-03-14T05:20:24;3.83;;;1.08;;
140;SDS011;65;48.778;9.160;2023-03-14T05:23:10;4.10;;;0.90;;
140;SDS011;65;48.778;9.160;2023-03-14T05:25:56;4.47;;;1.40;;
140;SDS011;65;48.778;9.160;2023-03-14T05:28:41;7.00;;;1.17;;
140;SDS011;65;48.778;9.160;2023-03-14T05:31:27;6.05;;;1.63;;
140;SDS011;65;48.778;9.160;2023-03-14T05:34:13;5.38;;;0.77;;
140;SDS011;65;48.778;9.160;2023-03-14T05:36:59;3.13;;;0.98;;
140;SDS011;65;48.778;9.160;2023-03-14T05:39:45;2.80;;;0.88;;
140;SDS011;65;48.778;9.160;2023-03-14T05:42:30;4.03;;;1.30;;
140;SDS011;65;48.778;9.160;2023-03-14T05:45:16;7.20;;;1.38;;
140;SDS011;65;48.778;9.160;2023-03-14T05:48:02;3.80;;;1.02;;
140;SDS011;65;48.778;9.160;2023-03-14T05:50:48;4.47;;;1.20;;
140;SDS011;65;48.778;9.160;2023-03-14T05:53:39;5.85;;;1.30;;
140;SDS011;65;48.778;9.160;2023-03-14T05:56:28;3.53;;;1.10;;
140;SDS011;65;48.778;9.160;2023-03-14T05:59:13;5.10;;;1.20;;
140;SDS011;65;48.778;9.160;2023-03-14T06:02:00;3.08;;;1.13;;
140;SDS011;65;48.778;9.160;2023-03-14T06:04:45;3.67;;;1.02;;
140;SDS011;65;48.778;9.160;2023-03-14T06:07:31;4.35;;;1.25;;
140;SDS011;65;48.778;9.160;2023-03-14T06:10:17;4.13;;;1.33;;
140;SDS011;65;48.778;9.160;2023-03-14T06:13:03;3.03;;;1.00;;
140;SDS011;65;48.778;9.160;2023-03-14T06:15:48;5.72;;;1.45;;
140;SDS011;65;48.778;9.160;2023-03-14T06:18:34;3.47;;;1.10;;
140;SDS011;65;48.778;9.160;2023-03-14T06:21:20;3.28;;;1.15;;
140;SDS011;65;48.778;9.160;2023-03-14T06:24:06;3.30;;;1.10;;
140;SDS011;65;48.778;9.160;2023-03-14T06:26:52;3.97;;;1.23;;
140;SDS011;65;48.778;9.160;2023-03-14T06:29:38;2.60;;;0.95;;
140;SDS011;65;48.778;9.160;2023-03-14T06:32:26;2.30;;;1.02;;
140;SDS011;65;48.778;9.160;2023-03-14T06:35:12;2.58;;;1.10;;
140;SDS011;65;48.778;9.160;2023-03-14T06:37:58;3.85;;;1.52;;
140;SDS011;65;48.778;9.160;2023-03-14T06:40:43;3.92;;;1.25;;
140;SDS011;65;48.778;9.160;2023-03-14T06:43:29;4.30;;;1.40;;
140;SDS011;65;48.778;9.160;2023-03-14T06:46:15;3.42;;;1.23;;
140;SDS011;65;48.778;9.160;2023-03-14T06:49:01;3.33;;;1.10;;
140;SDS011;65;48.778;9.160;2023-03-14T06:51:46;5.47;;;1.42;;
140;SDS011;65;48.778;9.160;2023-03-14T06:54:32;4.18;;;1.17;;
140;SDS011;65;48.778;9.160;2023-03-14T06:57:18;2.25;;;0.93;;
140;SDS011;65;48.778;9.160;2023-03-14T07:00:04;3.10;;;0.98;;
140;SDS011;65;48.778;9.160;2023-03-14T07:02:50;3.63;;;1.30;;
140;SDS011;65;48.778;9.160;2023-03-14T07:05:36;3.55;;;1.20;;
140;SDS011;65;48.778;9.160;2023-03-14T07:08:24;1.98;;;0.70;;
140;SDS011;65;48.778;9.160;2023-03-14T07:11:09;4.68;;;1.15;;
140;SDS011;65;48.778;9.160;2023-03-14T07:13:56;1.70;;;0.80;;
140;SDS011;65;48.778;9.160;2023-03-14T07:16:42;4.40;;;0.80;;
140;SDS011;65;48.778;9.160;2023-03-14T07:19:28;2.30;;;0.98;;
140;SDS011;65;48.778;9.160;2023-03-14T07:22:13;1.92;;;0.75;;
140;SDS011;65;48.778;9.160;2023-03-14T07:24:59;2.20;;;0.60;;
140;SDS011;65;48.778;9.160;2023-03-14T07:27:45;1.75;;;0.93;;
140;SDS011;65;48.778;9.160;2023-03-14T07:30:33;2.05;;;0.70;;
140;SDS011;65;48.778;9.160;2023-03-14T07:33:18;3.40;;;0.77;;
140;SDS011;65;48.778;9.160;2023-03-14T07:36:04;1.25;;;0.75;;
140;SDS011;65;48.778;9.160;2023-03-14T07:38:51;1.42;;;0.85;;
140;SDS011;65;48.778;9.160;2023-03-14T07:41:37;1.88;;;1.02;;
140;SDS011;65;48.778;9.160;2023-03-14T07:44:23;0.63;;;0.40;;
140;SDS011;65;48.778;9.160;2023-03-14T07:47:09;1.45;;;0.60;;
140;SDS011;65;48.778;9.160;2023-03-14T07:49:54;2.58;;;1.00;;
140;SDS011;65;48.778;9.160;2023-03-14T07:52:40;3.90;;;0.82;;
140;SDS011;65;48.778;9.160;2023-03-14T07:55:26;2.35;;;0.82;;
140;SDS011;65;48.778;9.160;2023-03-14T07:58:12;1.83;;;0.82;;
140;SDS011;65;48.778;9.160;2023-03-14T08:00:58;4.15;;;0.70;;
140;SDS011;65;48.778;9.160;2023-03-14T08:03:44;2.88;;;0.63;;
140;SDS011;65;48.778;9.160;2023-03-14T08:06:29;7.00;;;1.48;;
140;SDS011;65;48.778;9.160;2023-03-14T08:09:15;2.65;;;0.75;;
140;SDS011;65;48.778;9.160;2023-03-14T08:12:01;2.63;;;0.68;;
140;SDS011;65;48.778;9.160;2023-03-14T08:14:47;2.03;;;0.80;;
140;SDS011;65;48.778;9.160;2023-03-14T08:17:32;0.85;;;0.52;;
140;SDS011;65;48.778;9.160;2023-03-14T08:20:18;1.92;;;0.88;;
140;SDS011;65;48.778;9.160;2023-03-14T08:23:08;4.00;;;0.85;;
140;SDS011;65;48.778;9.160;2023-03-14T08:25:54;3.45;;;0.70;;
140;SDS011;65;48.778;9.160;2023-03-14T08:28:39;1.63;;;0.70;;
140;SDS011;65;48.778;9.160;2023-03-14T08:31:25;1.33;;;0.50;;
140;SDS011;65;48.778;9.160;2023-03-14T08:34:11;1.17;;;0.47;;
140;SDS011;65;48.778;9.160;2023-03-14T08:36:57;3.10;;;0.60;;
140;SDS011;65;48.778;9.160;2023-03-14T08:39:42;2.45;;;0.70;;
140;SDS011;65;48.778;9.160;2023-03-14T08:42:28;3.20;;;0.90;;
140;SDS011;65;48.778;9.160;2023-03-14T08:45:14;1.50;;;0.55;;
140;SDS011;65;48.778;9.160;2023-03-14T08:48:01;2.53;;;0.50;;
140;SDS011;65;48.778;9.160;2023-03-14T08:50:48;1.67;;;0.70;;
140;SDS011;65;48.778;9.160;2023-03-14T08:53:34;3.67;;;0.43;;
140;SDS011;65;48.778;9.160;2023-03-14T08:56:19;2.20;;;0.73;;
140;SDS011;65;48.778;9.160;2023-03-14T08:59:05;0.77;;;0.50;;
140;SDS011;65;48.778;9.160;2023-03-14T09:01:51;3.30;;;0.75;;
140;SDS011;65;48.778;9.160;2023-03-14T09:04:37;1.13;;;0.63;;
140;SDS011;65;48.778;9.160;2023-03-14T09:07:23;0.77;;;0.40;;
140;SDS011;65;48.778;9.160;2023-03-14T09:10:09;3.30;;;0.60;;
140;SDS011;65;48.778;9.160;2023-03-14T09:12:55;1.00;;;0.40;;
140;SDS011;65;48.778;9.160;2023-03-14T09:15:43;1.35;;;0.60;;
140;SDS011;65;48.778;9.160;2023-03-14T09:18:29;0.68;;;0.50;;
140;SDS011;65;48.778;9.160;2023-03-14T09:21:15;3.25;;;0.80;;
140;SDS011;65;48.778;9.160;2023-03-14T09:24:01;0.57;;;0.40;;
140;SDS011;65;48.778;9.160;2023-03-14T09:26:47;1.15;;;0.57;;
140;SDS011;65;48.778;9.160;2023-03-14T09:29:33;1.67;;;0.70;;
140;SDS011;65;48.778;9.160;2023-03-14T09:32:19;1.08;;;0.60;;
140;SDS011;65;48.778;9.160;2023-03-14T09:35:04;1.35;;;0.55;;
140;SDS011;65;48.778;9.160;2023-03-14T09:37:50;1.27;;;0.50;;
140;SDS011;65;48.778;9.160;2023-03-14T09:40:36;1.20;;;0.55;;
140;SDS011;65;48.778;9.160;2023-03-14T09:43:23;0.88;;;0.28;;
140;SDS011;65;48.778;9.160;2023-03-14T09:46:11;1.55;;;0.55;;
140;SDS011;65;48.778;9.160;2023-03-14T09:48:58;1.38;;;0.50;;
140;SDS011;65;48.778;9.160;2023-03-14T09:51:45;0.90;;;0.30;;
140;SDS011;65;48.778;9.160;2023-03-14T09:54:38;1.80;;;0.60;;
140;SDS011;65;48.778;9.160;2023-03-14T09:57:35;2.50;;;0.60;;
140;SDS011;65;48.778;9.160;2023-03-14T10:00:22;0.93;;;0.35;;
140;SDS011;65;48.778;9.160;2023-03-14T10:06:10;2.00;;;0.30;;
140;SDS011;65;48.778;9.160;2023-03-14T10:08:57;1.85;;;0.65;;
140;SDS011;65;48.778;9.160;2023-03-14T10:11:43;0.82;;;0.70;;
140;SDS011;65;48.778;9.160;2023-03-14T10:14:36;0.95;;;0.47;;
140;SDS011;65;48.778;9.160;2023-03-14T10:17:29;0.50;;;0.40;;
140;SDS011;65;48.778;9.160;2023-03-14T10:23:26;1.35;;;0.70;;
140;SDS011;65;48.778;9.160;2023-03-14T10:26:16;1.40;;;0.52;;
140;SDS011;65;48.778;9.160;2023-03-14T10:38:00;2.35;;;0.43;;
140;SDS011;65;48.778;9.160;2023-03-14T10:40:47;0.50;;;0.50;;
140;SDS011;65;48.778;9.160;2023-03-14T10:43:35;0.40;;;0.40;;
140;SDS011;65;48.778;9.160;2023-03-14T10:46:21;0.80;;;0.28;;
140;SDS011;65;48.778;9.160;2023-03-14T10:49:16;0.55;;;0.30;;
140;SDS011;65;48.778;9.160;2023-03-14T10:55:10;2.30;;;0.60;;
140;SDS011;65;48.778;9.160;2023-03-14T10:57:57;1.55;;;0.60;;
140;SDS011;65;48.778;9.160;2023-03-14T11:00:43;0.45;;;0.45;;
140;SDS011;65;48.778;9.160;2023-03-14T11:03:31;4.03;;;0.55;;
140;SDS011;65;48.778;9.160;2023-03-14T11:06:23;0.77;;;0.50;;
140;SDS011;65;48.778;9.160;2023-03-14T11:09:38;1.08;;;0.52;;
140;SDS011;65;48.778;9.160;2023-03-14T11:22:38;1.70;;;0.63;;
140;SDS011;65;48.778;9.160;2023-03-14T11:28:37;0.93;;;0.38;;
140;SDS011;65;48.778;9.160;2023-03-14T11:34:55;0.65;;;0.20;;
140;SDS011;65;48.778;9.160;2023-03-14T11:37:29;2.60;;;0.43;;
140;SDS011;65;48.778;9.160;2023-03-14T11:40:20;0.95;;;0.40;;
140;SDS011;65;48.778;9.160;2023-03-14T11:46:50;0.35;;;0.35;;
140;SDS011;65;48.778;9.160;2023-03-14T11:49:45;0.57;;;0.30;;
140;SDS011;65;48.778;9.160;2023-03-14T11:53:15;0.50;;;0.40;;
140;SDS011;65;48.778;9.160;2023-03-14T11:56:09;0.57;;;0.40;;
140;SDS011;65;48.778;9.160;2023-03-14T11:59:15;0.93;;;0.30;;
140;SDS011;65;48.778;9.160;2023-03-14T12:14:55;1.23;;;0.63;;
140;SDS011;65;48.778;9.160;2023-03-14T12:17:43;1.13;;;0.60;;
140;SDS011;65;48.778;9.160;2023-03-14T12:20:30;0.57;;;0.40;;
140;SDS011;65;48.778;9.160;2023-03-14T12:23:22;0.35;;;0.30;;
140;SDS011;65;48.778;9.160;2023-03-14T12:34:46;1.48;;;0.55;;
140;SDS011;65;48.778;9.160;2023-03-14T12:37:42;1.00;;;0.38;;
140;SDS011;65;48.778;9.160;2023-03-14T12:40:33;3.72;;;0.60;;
140;SDS011;65;48.778;9.160;2023-03-14T12:43:28;2.42;;;0.90;;
140;SDS011;65;48.778;9.160;2023-03-14T12:49:08;1.17;;;0.55;;
140;SDS011;65;48.778;9.160;2023-03-14T12:51:58;1.27;;;0.80;;
140;SDS011;65;48.778;9.160;2023-03-14T12:54:53;0.75;;;0.50;;
140;SDS011;65;48.778;9.160;2023-03-14T12:57:58;0.60;;;0.60;;
140;SDS011;65;48.778;9.160;2023-03-14T13:00:57;1.77;;;0.75;;
140;SDS011;65;48.778;9.160;2023-03-14T13:03:56;1.23;;;0.80;;
140;SDS011;65;48.778;9.160;2023-03-14T13:09:50;2.50;;;0.73;;
140;SDS011;65;48.778;9.160;2023-03-14T13:15:35;1.65;;;0.65;;
140;SDS011;65;48.778;9.160;2023-03-14T13:18:35;1.60;;;0.73;;
140;SDS011;65;48.778;9.160;2023-03-14T13:21:24;1.80;;;0.75;;
140;SDS011;65;48.778;9.160;2023-03-14T13:24:43;2.90;;;1.10;;
140;SDS011;65;48.778;9.160;2023-03-14T13:27:22;2.08;;;0.85;;
140;SDS011;65;48.778;9.160;2023-03-14T13:33:04;2.08;;;0.82;;
140;SDS011;65;48.778;9.160;2023-03-14T13:38:42;3.08;;;0.88;;
140;SDS011;65;48.778;9.160;2023-03-14T13:41:27;2.60;;;0.63;;
140;SDS011;65;48.778;9.160;2023-03-14T13:44:16;4.70;;;1.17;;
140;SDS011;65;48.778;9.160;2023-03-14T13:47:05;3.30;;;0.90;;
140;SDS011;65;48.778;9.160;2023-03-14T13:49:58;3.10;;;0.70;;
140;SDS011;65;48.778;9.160;2023-03-14T13:52:44;1.90;;;0.80;;
140;SDS011;65;48.778;9.160;2023-03-14T13:55:31;2.35;;;0.80;;
140;SDS011;65;48.778;9.160;2023-03-14T13:58:21;3.38;;;0.90;;
140;SDS011;65;48.778;9.160;2023-03-14T14:01:33;0.85;;;0.70;;
140;SDS011;65;48.778;9.160;2023-03-14T14:04:19;2.10;;;0.90;;
140;SDS011;65;48.778;9.160;2023-03-14T14:07:13;1.75;;;0.80;;
140;SDS011;65;48.778;9.160;2023-03-14T14:10:03;1.75;;;0.70;;
140;SDS011;65;48.778;9.160;2023-03-14T14:12:55;3.80;;;0.75;;
140;SDS011;65;48.778;9.160;2023-03-14T14:15:47;3.03;;;0.70;;
140;SDS011;65;48.778;9.160;2023-03-14T14:18:37;2.50;;;0.70;;
140;SDS011;65;48.778;9.160;2023-03-14T14:21:24;3.75;;;0.85;;
140;SDS011;65;48.778;9.160;2023-03-14T14:24:13;1.23;;;0.80;;
140;SDS011;65;48.778;9.160;2023-03-14T14:27:01;2.15;;;0.98;;
140;SDS011;65;48.778;9.160;2023-03-14T14:29:58;1.25;;;0.70;;
140;SDS011;65;48.778;9.160;2023-03-14T14:32:47;3.28;;;0.88;;
140;SDS011;65;48.778;9.160;2023-03-14T14:35:34;4.15;;;0.95;;
140;SDS011;65;48.778;9.160;2023-03-14T14:38:21;2.80;;;1.00;;
140;SDS011;65;48.778;9.160;2023-03-14T14:41:10;6.40;;;1.17;;
140;SDS011;65;48.778;9.160;2023-03-14T14:43:57;2.15;;;0.80;;
140;SDS011;65;48.778;9.160;2023-03-14T14:46:44;2.13;;;0.82;;
140;SDS011;65;48.778;9.160;2023-03-14T14:49:31;3.72;;;1.27;;
140;SDS011;65;48.778;9.160;2023-03-14T14:52:19;4.53;;;1.67;;
140;SDS011;65;48.778;9.160;2023-03-14T14:55:11;2.33;;;0.85;;
140;SDS011;65;48.778;9.160;2023-03-14T14:58:12;5.93;;;1.23;;
140;SDS011;65;48.778;9.160;2023-03-14T15:03:59;2.45;;;0.90;;
140;SDS011;65;48.778;9.160;2023-03-14T15:06:48;5.18;;;1.30;;
140;SDS011;65;48.778;9.160;2023-03-14T15:09:35;3.95;;;1.25;;
140;SDS011;65;48.778;9.160;2023-03-14T15:12:21;6.30;;;1.20;;
140;SDS011;65;48.778;9.160;2023-03-14T15:15:10;3.45;;;1.40;;
140;SDS011;65;48.778;9.160;2023-03-14T15:17:56;2.28;;;0.90;;
140;SDS011;65;48.778;9.160;2023-03-14T15:20:43;4.55;;;1.15;;
140;SDS011;65;48.778;9.160;2023-03-14T15:23:30;3.22;;;1.00;;
140;SDS011;65;48.778;9.160;2023-03-14T15:26:17;4.53;;;1.13;;
140;SDS011;65;48.778;9.160;2023-03-14T15:29:05;4.10;;;1.25;;
140;SDS011;65;48.778;9.160;2023-03-14T15:31:53;4.10;;;1.30;;
140;SDS011;65;48.778;9.160;2023-03-14T15:34:39;2.58;;;0.75;;
140;SDS011;65;48.778;9.160;2023-03-14T15:37:25;4.35;;;1.30;;
140;SDS011;65;48.778;9.160;2023-03-14T15:40:11;4.88;;;1.30;;
140;SDS011;65;48.778;9.160;2023-03-14T15:42:59;4.35;;;1.33;;
140;SDS011;65;48.778;9.160;2023-03-14T15:45:44;5.40;;;1.27;;
140;SDS011;65;48.778;9.160;2023-03-14T15:48:31;2.80;;;1.20;;
140;SDS011;65;48.778;9.160;2023-03-14T15:51:18;6.07;;;1.42;;
140;SDS011;65;48.778;9.160;2023-03-14T15:54:04;2.97;;;1.20;;
140;SDS011;65;48.778;9.160;2023-03-14T15:56:50;4.18;;;1.27;;
140;SDS011;65;48.778;9.160;2023-03-14T15:59:37;3.40;;;1.40;;
140;SDS011;65;48.778;9.160;2023-03-14T16:02:23;4.85;;;1.00;;
140;SDS011;65;48.778;9.160;2023-03-14T16:05:09;5.50;;;1.10;;
140;SDS011;65;48.778;9.160;2023-03-14T16:07:55;5.18;;;1.50;;
140;SDS011;65;48.778;9.160;2023-03-14T16:10:41;3.75;;;1.23;;
140;SDS011;65;48.778;9.160;2023-03-14T16:13:27;4.85;;;1.13;;
140;SDS011;65;48.778;9.160;2023-03-14T16:16:13;3.67;;;0.95;;
140;SDS011;65;48.778;9.160;2023-03-14T16:18:59;1.75;;;1.05;;
140;SDS011;65;48.778;9.160;2023-03-14T16:21:45;4.32;;;1.38;;
140;SDS011;65;48.778;9.160;2023-03-14T16:24:31;4.80;;;1.50;;
140;SDS011;65;48.778;9.160;2023-03-14T16:27:16;4.90;;;1.10;;
140;SDS011;65;48.778;9.160;2023-03-14T16:30:02;4.05;;;1.30;;
140;SDS011;65;48.778;9.160;2023-03-14T16:32:49;5.78;;;1.27;;
140;SDS011;65;48.778;9.160;2023-03-14T16:35:35;3.65;;;1.02;;
140;SDS011;65;48.778;9.160;2023-03-14T16:38:22;4.40;;;1.27;;
140;SDS011;65;48.778;9.160;2023-03-14T16:41:13;4.93;;;1.20;;
140;SDS011;65;48.778;9.160;2023-03-14T16:44:01;2.25;;;0.95;;
140;SDS011;65;48.778;9.160;2023-03-14T16:46:47;5.20;;;1.38;;
140;SDS011;65;48.778;9.160;2023-03-14T16:49:33;3.22;;;1.00;;
140;SDS011;65;48.778;9.160;2023-03-14T16:52:18;3.17;;;1.40;;
140;SDS011;65;48.778;9.160;2023-03-14T16:55:04;4.88;;;1.45;;
140;SDS011;65;48.778;9.160;2023-03-14T16:57:51;4.80;;;1.08;;
140;SDS011;65;48.778;9.160;2023-03-14T17:00:37;3.55;;;1.20;;
140;SDS011;65;48.778;9.160;2023-03-14T17:03:24;3.50;;;1.40;;
140;SDS011;65;48.778;9.160;2023-03-14T17:06:22;4.35;;;1.17;;
140;SDS011;65;48.778;9.160;2023-03-14T17:09:12;5.03;;;1.35;;
140;SDS011;65;48.778;9.160;2023-03-14T17:11:58;3.25;;;1.20;;
140;SDS011;65;48.778;9.160;2023-03-14T17:14:44;5.32;;;1.02;;
140;SDS011;65;48.778;9.160;2023-03-14T17:17:29;5.13;;;1.30;;
140;SDS011;65;48.778;9.160;2023-03-14T17:20:15;4.55;;;1.23;;
140;SDS011;65;48.778;9.160;2023-03-14T17:23:01;6.38;;;1.60;;
140;SDS011;65;48.778;9.160;2023-03-14T17:25:48;3.85;;;1.33;;
140;SDS011;65;48.778;9.160;2023-03-14T17:28:34;3.25;;;1.20;;
140;SDS011;65;48.778;9.160;2023-03-14T17:31:20;6.75;;;2.08;;
140;SDS011;65;48.778;9.160;2023-03-14T17:34:08;6.47;;;2.00;;
140;SDS011;65;48.778;9.160;2023-03-14T17:36:55;4.72;;;1.40;;
140;SDS011;65;48.778;9.160;2023-03-14T17:39:41;5.60;;;1.55;;
140;SDS011;65;48.778;9.160;2023-03-14T17:42:27;5.43;;;1.60;;
140;SDS011;65;48.778;9.160;2023-03-14T17:45:12;5.47;;;2.38;;
140;SDS011;65;48.778;9.160;2023-03-14T17:47:58;4.75;;;1.73;;
140;SDS011;65;48.778;9.160;2023-03-14T17:50:44;11.20;;;2.15;;
140;SDS011;65;48.778;9.160;2023-03-14T17:53:30;4.82;;;1.70;;
140;SDS011;65;48.778;9.160;2023-03-14T17:56:16;5.90;;;1.63;;
140;SDS011;65;48.778;9.160;2023-03-14T17:59:02;4.13;;;1.60;;
140;SDS011;65;48.778;9.160;2023-03-14T18:01:47;6.03;;;1.90;;
140;SDS011;65;48.778;9.160;2023-03-14T18:04:33;4.10;;;1.42;;
140;SDS011;65;48.778;9.160;2023-03-14T18:07:19;8.52;;;1.95;;
140;SDS011;65;48.778;9.160;2023-03-14T18:10:05;6.07;;;2.00;;
140;SDS011;65;48.778;9.160;2023-03-14T18:12:54;3.45;;;1.45;;
140;SDS011;65;48.778;9.160;2023-03-14T18:15:39;5.07;;;1.80;;
140;SDS011;65;48.778;9.160;2023-03-14T18:18:25;4.05;;;1.60;;
140;SDS011;65;48.778;9.160;2023-03-14T18:21:11;7.20;;;2.00;;
140;SDS011;65;48.778;9.160;2023-03-14T18:23:57;4.00;;;1.88;;
140;SDS011;65;48.778;9.160;2023-03-14T18:26:43;6.32;;;1.88;;
140;SDS011;65;48.778;9.160;2023-03-14T18:29:29;8.98;;;1.95;;
140;SDS011;65;48.778;9.160;2023-03-14T18:32:15;5.43;;;1.52;;
140;SDS011;65;48.778;9.160;2023-03-14T18:35:01;5.22;;;1.45;;
140;SDS011;65;48.778;9.160;2023-03-14T18:37:46;4.88;;;1.90;;
140;SDS011;65;48.778;9.160;2023-03-14T18:40:33;7.25;;;2.55;;
140;SDS011;65;48.778;9.160;2023-03-14T18:43:19;5.68;;;2.38;;
140;SDS011;65;48.778;9.160;2023-03-14T18:46:05;5.00;;;2.35;;
140;SDS011;65;48.778;9.160;2023-03-14T18:48:51;7.20;;;1.95;;
140;SDS011;65;48.778;9.160;2023-03-14T18:51:41;6.82;;;1.70;;
140;SDS011;65;48.778;9.160;2023-03-14T18:54:27;5.25;;;1.50;;
140;SDS011;65;48.778;9.160;2023-03-14T18:57:13;3.85;;;1.40;;
140;SDS011;65;48.778;9.160;2023-03-14T18:59:59;4.85;;;1.50;;
140;SDS011;65;48.778;9.160;2023-03-14T19:02:45;3.20;;;1.23;;
140;SDS011;65;48.778;9.160;2023-03-14T19:05:41;4.22;;;1.00;;
140;SDS011;65;48.778;9.160;2023-03-14T19:08:27;7.97;;;1.50;;
140;SDS011;65;48.778;9.160;2023-03-14T19:11:13;3.00;;;1.35;;
140;SDS011;65;48.778;9.160;2023-03-14T19:13:59;3.15;;;1.42;;
140;SDS011;65;48.778;9.160;2023-03-14T19:16:45;6.10;;;1.27;;
140;SDS011;65;48.778;9.160;2023-03-14T19:19:31;5.78;;;1.45;;
140;SDS011;65;48.778;9.160;2023-03-14T19:22:17;4.47;;;1.85;;
140;SDS011;65;48.778;9.160;2023-03-14T19:25:03;7.22;;;1.95;;
140;SDS011;65;48.778;9.160;2023-03-14T19:27:50;6.13;;;1.90;;
140;SDS011;65;48.778;9.160;2023-03-14T19:30:36;3.85;;;1.50;;
140;SDS011;65;48.778;9.160;2023-03-14T19:33:21;4.30;;;1.58;;
140;SDS011;65;48.778;9.160;2023-03-14T19:36:09;1.75;;;1.00;;
140;SDS011;65;48.778;9.160;2023-03-14T19:39:05;2.95;;;1.25;;
140;SDS011;65;48.778;9.160;2023-03-14T19:41:51;2.53;;;1.08;;
140;SDS011;65;48.778;9.160;2023-03-14T19:44:41;4.15;;;1.40;;
140;SDS011;65;48.778;9.160;2023-03-14T19:47:27;4.45;;;1.63;;
140;SDS011;65;48.778;9.160;2023-03-14T19:50:14;2.92;;;1.40;;